Time,TemperatureF,DewpointF,PressureIn,WindDirection,WindDirectionDegrees,WindSpeedMPH,WindSpeedGustMPH,Humidity,HourlyPrecipIn,Conditions,Clouds,dailyrainin,SoftwareType,DateUTC
2013-03-06 00:06:00,27.8,26.0,30.11,East,91,0.0,2.0,92,0.00,,,0.00,weatherlink.com 1.10,2013-03-06 05:06:00,
2013-03-06 00:21:00,28.0,26.0,30.11,ENE,77,0.0,3.0,93,0.00,,,0.00,weatherlink.com 1.10,2013-03-06 05:21:00,
2013-03-06 00:36:00,28.8,27.0,30.11,WNW,284,0.0,1.0,93,0.00,,,0.00,weatherlink.com 1.10,2013-03-06 05:36:00,
2013-03-06 00:51:00,29.2,27.0,30.12,SSE,152,0.0,1.0,92,0.00,,,0.00,weatherlink.com 1.10,2013-03-06 05:51:00,
2013-03-06 01:06:00,29.6,28.0,30.12,East,89,0.0,1.0,92,0.00,,,0.00,weatherlink.com 1.10,2013-03-06 06:06:00,
2013-03-06 01:21:00,29.9,28.0,30.12,ESE,120,0.0,3.0,92,0.00,,,0.00,weatherlink.com 1.10,2013-03-06 06:21:00,
2013-03-06 01:36:00,30.0,28.0,30.12,ENE,62,0.0,1.0,92,0.00,,,0.00,weatherlink.com 1.10,2013-03-06 06:36:00,
2013-03-06 01:51:00,30.0,28.0,30.11,ENE,58,1.0,3.0,92,0.00,,,0.00,weatherlink.com 1.10,2013-03-06 06:51:00,
2013-03-06 02:06:00,30.4,28.0,30.11,ESE,120,1.0,4.0,92,0.00,,,0.00,weatherlink.com 1.10,2013-03-06 07:06:00,
2013-03-06 02:21:00,30.5,28.0,30.11,SE,129,0.0,3.0,91,0.00,,,0.00,weatherlink.com 1.10,2013-03-06 07:21:00,
2013-03-06 02:36:00,30.8,29.0,30.11,ENE,63,3.0,8.0,91,0.00,,,0.00,weatherlink.com 1.10,2013-03-06 07:36:00,
2013-03-06 02:51:00,30.8,29.0,30.11,ENE,60,0.0,4.0,91,0.00,,,0.00,weatherlink.com 1.10,2013-03-06 07:51:00,
2013-03-06 03:06:00,30.6,28.0,30.10,ESE,103,1.0,5.0,91,0.00,,,0.00,weatherlink.com 1.10,2013-03-06 08:06:00,
2013-03-06 03:21:00,30.6,28.0,30.10,SSW,193,1.0,5.0,91,0.00,,,0.00,weatherlink.com 1.10,2013-03-06 08:21:00,
2013-03-06 03:36:00,30.6,28.0,30.10,SW,233,2.0,4.0,91,0.00,,,0.00,weatherlink.com 1.10,2013-03-06 08:36:00,
2013-03-06 03:51:00,30.4,28.0,30.11,NNW,337,2.0,3.0,91,0.00,,,0.00,weatherlink.com 1.10,2013-03-06 08:51:00,
2013-03-06 04:06:00,30.5,28.0,30.11,WNW,283,1.0,6.0,90,0.00,,,0.00,weatherlink.com 1.10,2013-03-06 09:06:00,
2013-03-06 04:21:00,30.3,28.0,30.10,West,270,2.0,4.0,90,0.00,,,0.00,weatherlink.com 1.10,2013-03-06 09:21:00,
2013-03-06 04:36:00,30.2,28.0,30.10,WSW,252,0.0,4.0,90,0.00,,,0.00,weatherlink.com 1.10,2013-03-06 09:36:00,
2013-03-06 04:51:00,30.1,28.0,30.11,East,83,1.0,6.0,90,0.00,,,0.00,weatherlink.com 1.10,2013-03-06 09:51:00,
2013-03-06 05:06:00,30.1,28.0,30.11,East,82,2.0,5.0,90,0.00,,,0.00,weatherlink.com 1.10,2013-03-06 10:06:00,
2013-03-06 05:21:00,30.2,27.0,30.12,East,91,1.0,3.0,89,0.00,,,0.00,weatherlink.com 1.10,2013-03-06 10:21:00,
2013-03-06 05:36:00,30.2,27.0,30.12,North,11,1.0,10.0,89,0.00,,,0.00,weatherlink.com 1.10,2013-03-06 10:36:00,
2013-03-06 05:51:00,30.0,27.0,30.12,NW,304,1.0,6.0,89,0.00,,,0.00,weatherlink.com 1.10,2013-03-06 10:51:00,
2013-03-06 06:06:00,29.8,27.0,30.12,NNW,337,0.0,3.0,89,0.00,,,0.00,weatherlink.com 1.10,2013-03-06 11:06:00,
2013-03-06 06:21:00,29.8,27.0,30.13,SSE,150,1.0,3.0,89,0.00,,,0.00,weatherlink.com 1.10,2013-03-06 11:21:00,
2013-03-06 06:36:00,30.3,27.0,30.13,East,80,0.0,6.0,87,0.00,,,0.00,weatherlink.com 1.10,2013-03-06 11:36:00,
2013-03-06 06:52:00,30.4,27.0,30.14,WNW,286,1.0,5.0,87,0.00,,,0.00,weatherlink.com 1.10,2013-03-06 11:52:00,
2013-03-06 07:07:00,30.5,27.0,30.14,NW,309,2.0,6.0,87,0.00,,,0.00,weatherlink.com 1.10,2013-03-06 12:07:00,
2013-03-06 07:22:00,30.4,27.0,30.15,SE,138,0.0,6.0,87,0.00,,,0.00,weatherlink.com 1.10,2013-03-06 12:22:00,
2013-03-06 07:52:00,30.6,27.0,30.15,East,98,0.0,4.0,87,0.00,,,0.00,weatherlink.com 1.10,2013-03-06 12:52:00,
2013-03-06 08:07:00,30.8,27.0,30.15,NE,54,1.0,6.0,86,0.00,,,0.00,weatherlink.com 1.10,2013-03-06 13:07:00,
2013-03-06 08:22:00,31.2,27.0,30.16,WSW,255,0.0,4.0,85,0.00,,,0.00,weatherlink.com 1.10,2013-03-06 13:22:00,
2013-03-06 08:37:00,31.4,27.0,30.15,WNW,283,1.0,5.0,85,0.00,,,0.00,weatherlink.com 1.10,2013-03-06 13:37:00,
2013-03-06 08:52:00,31.8,28.0,30.16,NW,308,1.0,4.0,84,0.00,,,0.00,weatherlink.com 1.10,2013-03-06 13:52:00,
2013-03-06 09:07:00,31.9,27.0,30.16,WNW,295,2.0,7.0,83,0.00,,,0.00,weatherlink.com 1.10,2013-03-06 14:07:00,
2013-03-06 09:22:00,32.3,28.0,30.16,ENE,77,0.0,5.0,83,0.00,,,0.00,weatherlink.com 1.10,2013-03-06 14:22:00,
2013-03-06 09:37:00,32.5,28.0,30.17,West,278,2.0,7.0,82,0.00,,,0.00,weatherlink.com 1.10,2013-03-06 14:37:00,
2013-03-06 09:52:00,32.7,28.0,30.16,NW,314,0.0,4.0,81,0.00,,,0.00,weatherlink.com 1.10,2013-03-06 14:52:00,
2013-03-06 10:07:00,33.0,28.0,30.16,WNW,286,2.0,3.0,81,0.00,,,0.00,weatherlink.com 1.10,2013-03-06 15:07:00,
2013-03-06 10:22:00,34.2,28.0,30.16,SSW,198,1.0,8.0,77,0.00,,,0.00,weatherlink.com 1.10,2013-03-06 15:22:00,
2013-03-06 10:37:00,35.3,28.0,30.15,ESE,121,3.0,9.0,75,0.00,,,0.00,weatherlink.com 1.10,2013-03-06 15:37:00,
2013-03-06 10:52:00,36.9,28.0,30.15,West,262,0.0,7.0,71,0.00,,,0.00,weatherlink.com 1.10,2013-03-06 15:52:00,
2013-03-06 11:08:00,35.1,28.0,30.16,SW,226,0.0,9.0,74,0.00,,,0.00,weatherlink.com 1.10,2013-03-06 16:08:00,
2013-03-06 11:22:00,34.6,27.0,30.16,WNW,283,1.0,10.0,74,0.00,,,0.00,weatherlink.com 1.10,2013-03-06 16:22:00,
2013-03-06 11:37:00,33.9,27.0,30.16,NW,311,2.0,10.0,76,0.00,,,0.00,weatherlink.com 1.10,2013-03-06 16:37:00,
2013-03-06 11:52:00,33.6,26.0,30.16,West,259,2.0,8.0,75,0.00,,,0.00,weatherlink.com 1.10,2013-03-06 16:52:00,
2013-03-06 12:07:00,33.6,26.0,30.16,WNW,295,0.0,5.0,75,0.00,,,0.00,weatherlink.com 1.10,2013-03-06 17:07:00,
2013-03-06 12:22:00,33.4,26.0,30.16,NE,51,1.0,6.0,74,0.00,,,0.00,weatherlink.com 1.10,2013-03-06 17:22:00,
2013-03-06 12:37:00,33.7,26.0,30.15,NNW,333,2.0,9.0,73,0.00,,,0.00,weatherlink.com 1.10,2013-03-06 17:37:00,
2013-03-06 12:52:00,35.0,26.0,30.15,East,101,2.0,8.0,70,0.00,,,0.00,weatherlink.com 1.10,2013-03-06 17:52:00,
2013-03-06 13:07:00,35.3,25.0,30.14,WNW,287,5.0,8.0,67,0.00,,,0.00,weatherlink.com 1.10,2013-03-06 18:07:00,
2013-03-06 13:22:00,34.9,25.0,30.14,NW,326,1.0,10.0,66,0.00,,,0.00,weatherlink.com 1.10,2013-03-06 18:22:00,
2013-03-06 13:37:00,34.5,24.0,30.14,East,96,6.0,8.0,66,0.00,,,0.00,weatherlink.com 1.10,2013-03-06 18:37:00,
2013-03-06 13:52:00,34.0,24.0,30.15,SW,232,1.0,7.0,67,0.00,,,0.00,weatherlink.com 1.10,2013-03-06 18:52:00,
2013-03-06 14:07:00,33.2,24.0,30.15,WNW,299,4.0,5.0,68,0.00,,,0.00,weatherlink.com 1.10,2013-03-06 19:07:00,
2013-03-06 14:22:00,32.7,24.0,30.16,SSE,160,4.0,6.0,69,0.00,,,0.00,weatherlink.com 1.10,2013-03-06 19:22:00,
2013-03-06 14:37:00,32.4,24.0,30.16,WSW,248,3.0,10.0,70,0.00,,,0.00,weatherlink.com 1.10,2013-03-06 19:37:00,
2013-03-06 14:52:00,32.0,24.0,30.17,East,99,3.0,5.0,72,0.00,,,0.00,weatherlink.com 1.10,2013-03-06 19:52:00,
2013-03-06 15:07:00,32.1,24.0,30.16,WNW,297,0.0,6.0,71,0.00,,,0.00,weatherlink.com 1.10,2013-03-06 20:07:00,
2013-03-06 15:22:00,32.7,24.0,30.16,ESE,112,0.0,4.0,70,0.00,,,0.00,weatherlink.com 1.10,2013-03-06 20:22:00,
2013-03-06 15:37:00,32.8,24.0,30.16,SE,129,1.0,3.0,70,0.00,,,0.00,weatherlink.com 1.10,2013-03-06 20:37:00,
2013-03-06 15:52:00,32.3,24.0,30.16,West,260,1.0,5.0,71,0.00,,,0.00,weatherlink.com 1.10,2013-03-06 20:52:00,
2013-03-06 16:07:00,32.1,23.0,30.16,SE,143,0.0,4.0,70,0.00,,,0.00,weatherlink.com 1.10,2013-03-06 21:07:00,
2013-03-06 16:22:00,31.9,23.0,30.16,North,355,2.0,5.0,71,0.00,,,0.00,weatherlink.com 1.10,2013-03-06 21:22:00,
2013-03-06 16:37:00,31.9,23.0,30.16,West,259,1.0,3.0,70,0.00,,,0.00,weatherlink.com 1.10,2013-03-06 21:37:00,
2013-03-06 16:52:00,31.7,23.0,30.16,SSW,194,0.0,4.0,69,0.00,,,0.00,weatherlink.com 1.10,2013-03-06 21:52:00,
2013-03-06 17:07:00,31.7,23.0,30.16,East,91,0.0,4.0,69,0.00,,,0.00,weatherlink.com 1.10,2013-03-06 22:07:00,
2013-03-06 17:22:00,31.6,23.0,30.16,North,5,4.0,7.0,70,0.00,,,0.00,weatherlink.com 1.10,2013-03-06 22:22:00,
2013-03-06 17:37:00,31.4,23.0,30.16,SSW,207,0.0,4.0,70,0.00,,,0.00,weatherlink.com 1.10,2013-03-06 22:37:00,
2013-03-06 17:52:00,31.4,23.0,30.17,East,98,0.0,8.0,71,0.00,,,0.00,weatherlink.com 1.10,2013-03-06 22:52:00,
2013-03-06 18:07:00,31.2,23.0,30.17,ESE,111,0.0,4.0,72,0.00,,,0.00,weatherlink.com 1.10,2013-03-06 23:07:00,
2013-03-06 18:22:00,31.1,23.0,30.17,NNW,333,3.0,4.0,72,0.00,,,0.00,weatherlink.com 1.10,2013-03-06 23:22:00,
2013-03-06 18:37:00,31.0,23.0,30.17,NNE,30,3.0,4.0,72,0.00,,,0.00,weatherlink.com 1.10,2013-03-06 23:37:00,
2013-03-06 18:52:00,30.8,23.0,30.17,West,281,3.0,8.0,73,0.00,,,0.00,weatherlink.com 1.10,2013-03-06 23:52:00,
2013-03-06 19:07:00,30.7,23.0,30.18,WNW,293,2.0,7.0,72,0.00,,,0.00,weatherlink.com 1.10,2013-03-07 00:07:00,
2013-03-06 19:22:00,30.7,23.0,30.18,SE,141,2.0,5.0,73,0.00,,,0.00,weatherlink.com 1.10,2013-03-07 00:22:00,
2013-03-06 19:37:00,30.6,23.0,30.18,NNE,15,0.0,8.0,74,0.00,,,0.00,weatherlink.com 1.10,2013-03-07 00:37:00,
2013-03-06 19:53:00,30.4,23.0,30.18,East,92,0.0,5.0,75,0.00,,,0.00,weatherlink.com 1.10,2013-03-07 00:53:00,
2013-03-06 20:08:00,30.2,24.0,30.18,SW,229,0.0,6.0,77,0.00,,,0.00,weatherlink.com 1.10,2013-03-07 01:08:00,
2013-03-06 20:23:00,29.9,23.0,30.18,NW,321,4.0,7.0,76,0.00,,,0.00,weatherlink.com 1.10,2013-03-07 01:23:00,
2013-03-06 20:38:00,29.8,23.0,30.18,WNW,286,3.0,6.0,77,0.00,,,0.00,weatherlink.com 1.10,2013-03-07 01:38:00,
2013-03-06 20:53:00,29.6,24.0,30.17,West,278,0.0,4.0,78,0.00,,,0.00,weatherlink.com 1.10,2013-03-07 01:53:00,
2013-03-06 21:08:00,29.3,24.0,30.16,East,86,1.0,4.0,80,0.00,,,0.00,weatherlink.com 1.10,2013-03-07 02:08:00,
2013-03-06 21:23:00,29.0,24.0,30.17,ESE,105,1.0,3.0,80,0.00,,,0.00,weatherlink.com 1.10,2013-03-07 02:23:00,
2013-03-06 21:38:00,28.9,23.0,30.17,West,269,1.0,1.0,80,0.00,,,0.00,weatherlink.com 1.10,2013-03-07 02:38:00,
2013-03-06 21:53:00,28.9,24.0,30.17,SE,133,1.0,1.0,81,0.00,,,0.00,weatherlink.com 1.10,2013-03-07 02:53:00,
2013-03-06 22:08:00,28.7,24.0,30.16,East,98,1.0,3.0,81,0.00,,,0.00,weatherlink.com 1.10,2013-03-07 03:08:00,
2013-03-06 22:23:00,28.6,24.0,30.16,SE,143,0.0,2.0,82,0.00,,,0.00,weatherlink.com 1.10,2013-03-07 03:23:00,
2013-03-06 22:38:00,28.4,24.0,30.17,North,356,0.0,2.0,83,0.00,,,0.00,weatherlink.com 1.10,2013-03-07 03:38:00,
2013-03-06 22:53:00,28.3,24.0,30.17,ESE,113,0.0,1.0,83,0.00,,,0.00,weatherlink.com 1.10,2013-03-07 03:53:00,
2013-03-06 23:08:00,28.2,23.0,30.17,NNW,346,2.0,2.0,82,0.00,,,0.00,weatherlink.com 1.10,2013-03-07 04:08:00,
2013-03-06 23:23:00,28.1,23.0,30.16,WSW,250,1.0,6.0,81,0.00,,,0.00,weatherlink.com 1.10,2013-03-07 04:23:00,
2013-03-06 23:38:00,27.8,23.0,30.17,NW,304,0.0,2.0,82,0.00,,,0.00,weatherlink.com 1.10,2013-03-07 04:38:00,
2013-03-06 23:53:00,27.5,23.0,30.16,NNW,338,0.0,2.0,82,0.00,,,0.00,weatherlink.com 1.10,2013-03-07 04:53:00,